Time;durP1;ratioP1;P1;durP2;ratioP2;P2;SDS_P1;SDS_P2;PMS_P1;PMS_P2;Temp;Humidity;BMP_temperature;BMP_pressure;BME280_temperature;BME280_humidity;BME280_pressure;Samples;Min_cycle;Max_cycle;Signal;HPM_P1;HPM_P2
2022/05/29 05:05:28;;;;;;;2.65;0.90;;;;;;;;;;6184249;23;20029;-85
2022/05/29 06:19:44;;;;;;;2.88;1.00;;;;;;;;;;6142291;23;20856;-84
2022/05/29 06:22:10;;;;;;;2.42;1.13;;;;;;;;;;6180244;23;20017;-81
2022/05/29 06:24:36;;;;;;;2.50;0.85;;;;;;;;;;6185373;23;20001;-84
2022/05/29 06:27:02;;;;;;;3.58;1.00;;;;;;;;;;6186182;23;20012;-83
2022/05/29 06:29:28;;;;;;;3.05;0.90;;;;;;;;;;6185417;23;20005;-83
2022/05/29 06:32:00;;;;;;;2.10;0.80;;;;;;;;;;6184371;23;20027;-82
2022/05/29 06:34:29;;;;;;;3.65;1.00;;;;;;;;;;6184826;23;20072;-83
2022/05/29 06:36:55;;;;;;;3.05;1.00;;;;;;;;;;6184801;23;20028;-81
2022/05/29 06:39:22;;;;;;;2.40;0.90;;;;;;;;;;6185948;23;20013;-82
2022/05/29 06:41:48;;;;;;;4.45;1.00;;;;;;;;;;6184899;23;20005;-82
2022/05/29 06:44:15;;;;;;;2.38;0.80;;;;;;;;;;6184586;23;20094;-81
2022/05/29 06:46:41;;;;;;;7.00;1.10;;;;;;;;;;6184703;23;20012;-83
2022/05/29 06:49:07;;;;;;;4.60;1.38;;;;;;;;;;6186558;23;20001;-81
2022/05/29 06:51:35;;;;;;;4.18;1.40;;;;;;;;;;6185017;23;20001;-81
2022/05/29 06:54:02;;;;;;;5.43;1.02;;;;;;;;;;6185068;23;20040;-84
2022/05/29 06:56:28;;;;;;;2.90;1.17;;;;;;;;;;6185191;23;20005;-84
2022/05/29 06:58:55;;;;;;;4.05;1.00;;;;;;;;;;6186687;23;20013;-81
2022/05/29 07:07:00;;;;;;;6.18;1.05;;;;;;;;;;6187064;23;20081;-86
2022/05/29 07:09:31;;;;;;;3.88;0.85;;;;;;;;;;6181263;23;20008;-85
2022/05/29 07:12:02;;;;;;;5.15;1.25;;;;;;;;;;6185137;23;20072;-79
2022/05/29 07:14:28;;;;;;;3.58;1.25;;;;;;;;;;6184176;23;20005;-79
2022/05/29 07:16:54;;;;;;;7.35;1.27;;;;;;;;;;6184233;23;20009;-78
2022/05/29 07:19:24;;;;;;;2.03;1.00;;;;;;;;;;6184223;23;20013;-82
2022/05/29 07:21:50;;;;;;;3.75;0.90;;;;;;;;;;6185724;23;20013;-79
2022/05/29 07:24:16;;;;;;;5.35;0.90;;;;;;;;;;6184317;23;20064;-82
2022/05/29 07:26:43;;;;;;;2.80;1.00;;;;;;;;;;6185445;23;20052;-79
2022/05/29 07:29:11;;;;;;;4.15;1.00;;;;;;;;;;6184318;23;20001;-78
2022/05/29 07:31:38;;;;;;;2.83;0.82;;;;;;;;;;6185109;23;20008;-87
2022/05/29 07:34:04;;;;;;;2.67;0.80;;;;;;;;;;6185952;23;20036;-81
2022/05/29 07:36:30;;;;;;;4.35;1.15;;;;;;;;;;6183819;23;20323;-88
2022/05/29 07:38:57;;;;;;;3.00;1.00;;;;;;;;;;6185306;23;20096;-89
2022/05/29 07:44:08;;;;;;;2.35;0.85;;;;;;;;;;6187230;23;20060;-90
2022/05/29 07:46:34;;;;;;;3.28;0.88;;;;;;;;;;6185402;23;20312;-90
2022/05/29 07:49:00;;;;;;;2.28;0.60;;;;;;;;;;6186596;23;20036;-91
2022/05/29 07:51:27;;;;;;;5.35;1.10;;;;;;;;;;6188565;23;20027;-87
2022/05/29 07:53:53;;;;;;;2.72;0.80;;;;;;;;;;6186999;23;20016;-87
2022/05/29 07:56:19;;;;;;;3.33;1.40;;;;;;;;;;6187465;23;20001;-85
2022/05/29 07:58:46;;;;;;;3.35;0.93;;;;;;;;;;6188535;23;20084;-85
2022/05/29 08:01:12;;;;;;;4.07;0.90;;;;;;;;;;6187144;23;20012;-88
2022/05/29 08:03:39;;;;;;;2.42;0.88;;;;;;;;;;6186886;23;20445;-87
2022/05/29 08:06:06;;;;;;;2.90;1.08;;;;;;;;;;6187162;23;20032;-89
2022/05/29 08:08:33;;;;;;;3.03;1.17;;;;;;;;;;6187015;23;20009;-87
2022/05/29 08:10:59;;;;;;;2.75;0.85;;;;;;;;;;6187041;23;20005;-87
2022/05/29 08:13:25;;;;;;;2.58;0.90;;;;;;;;;;6187004;23;20016;-85
2022/05/29 08:15:51;;;;;;;3.33;1.00;;;;;;;;;;6186784;23;20001;-87
2022/05/29 08:18:18;;;;;;;3.35;0.90;;;;;;;;;;6188228;23;20013;-85
2022/05/29 08:20:44;;;;;;;3.35;0.90;;;;;;;;;;6186469;23;20035;-85
2022/05/29 08:23:10;;;;;;;3.78;0.80;;;;;;;;;;6186312;23;20005;-85
2022/05/29 08:31:05;;;;;;;2.15;0.70;;;;;;;;;;6187923;23;20342;-85
2022/05/29 08:33:33;;;;;;;2.35;0.80;;;;;;;;;;6186660;23;20012;-86
2022/05/29 08:36:01;;;;;;;2.72;0.68;;;;;;;;;;6186336;23;20063;-85
2022/05/29 08:38:27;;;;;;;2.20;0.70;;;;;;;;;;6186641;23;20019;-86
2022/05/29 08:40:55;;;;;;;3.72;0.95;;;;;;;;;;6186354;23;20001;-84
2022/05/29 08:43:41;;;;;;;2.72;0.73;;;;;;;;;;6186176;23;20029;-84
2022/05/29 08:46:13;;;;;;;1.88;0.65;;;;;;;;;;6185953;23;20104;-85
2022/05/29 08:48:43;;;;;;;4.57;0.85;;;;;;;;;;6187649;23;20012;-85
2022/05/29 08:51:12;;;;;;;5.20;0.80;;;;;;;;;;6186405;23;20020;-86
2022/05/29 08:53:50;;;;;;;2.85;1.00;;;;;;;;;;6186407;23;20437;-86
2022/05/29 08:56:21;;;;;;;3.40;0.88;;;;;;;;;;6186232;23;20053;-85
2022/05/29 08:58:47;;;;;;;2.65;0.85;;;;;;;;;;6186072;23;20017;-85
2022/05/29 09:01:29;;;;;;;1.88;0.63;;;;;;;;;;6186062;23;20085;-86
2022/05/29 09:03:58;;;;;;;2.08;0.90;;;;;;;;;;6186276;23;20032;-85
2022/05/29 09:06:29;;;;;;;3.28;0.80;;;;;;;;;;6185973;23;20334;-85
2022/05/29 09:08:56;;;;;;;2.85;0.75;;;;;;;;;;6186296;23;20009;-86
2022/05/29 09:11:27;;;;;;;2.53;0.85;;;;;;;;;;6186641;23;20001;-87
2022/05/29 09:13:55;;;;;;;1.45;0.55;;;;;;;;;;6186452;23;20005;-85
2022/05/29 09:16:23;;;;;;;3.03;0.80;;;;;;;;;;6186206;23;20001;-86
2022/05/29 09:19:00;;;;;;;4.40;0.95;;;;;;;;;;6186369;23;20009;-88
2022/05/29 09:21:32;;;;;;;2.38;0.90;;;;;;;;;;6185951;23;20017;-87
2022/05/29 09:23:58;;;;;;;3.27;0.80;;;;;;;;;;6186456;23;20012;-90
2022/05/29 09:26:24;;;;;;;3.42;1.00;;;;;;;;;;6186225;23;20276;-87
2022/05/29 09:28:52;;;;;;;4.28;0.90;;;;;;;;;;6186394;23;20006;-88
2022/05/29 09:31:19;;;;;;;3.05;0.60;;;;;;;;;;6186266;23;20016;-88
2022/05/29 09:33:46;;;;;;;2.78;0.60;;;;;;;;;;6186342;23;20005;-90
2022/05/29 09:36:25;;;;;;;1.73;0.60;;;;;;;;;;6187572;23;20032;-89
2022/05/29 09:39:02;;;;;;;1.88;0.60;;;;;;;;;;6186301;23;20020;-88
2022/05/29 09:41:32;;;;;;;2.92;0.80;;;;;;;;;;6186294;23;20005;-81
2022/05/29 09:44:15;;;;;;;3.20;0.63;;;;;;;;;;6186304;23;20005;-88
2022/05/29 09:46:41;;;;;;;;;;;;;;;;;;6186521;23;20013;-88
2022/05/29 09:51:56;;;;;;;3.13;0.73;;;;;;;;;;6187716;23;20039;-90
2022/05/29 09:54:25;;;;;;;2.22;0.60;;;;;;;;;;6186253;23;20005;-88
2022/05/29 09:56:51;;;;;;;3.08;0.88;;;;;;;;;;6185941;23;20087;-88
2022/05/29 09:59:22;;;;;;;1.88;0.70;;;;;;;;;;6187512;23;20071;-87
2022/05/29 10:01:49;;;;;;;2.63;0.73;;;;;;;;;;6186126;23;20075;-85
2022/05/29 10:04:34;;;;;;;2.60;0.70;;;;;;;;;;6185411;23;20345;-88
2022/05/29 10:07:11;;;;;;;1.75;0.47;;;;;;;;;;6186020;23;20011;-87
2022/05/29 10:09:55;;;;;;;3.30;0.80;;;;;;;;;;6186064;23;20005;-87
2022/05/29 10:12:21;;;;;;;2.55;0.77;;;;;;;;;;6185883;23;20016;-89
2022/05/29 10:14:47;;;;;;;2.42;0.52;;;;;;;;;;6186020;23;20012;-86
2022/05/29 10:17:15;;;;;;;4.35;0.80;;;;;;;;;;6186089;23;20016;-87
2022/05/29 10:19:44;;;;;;;2.05;0.50;;;;;;;;;;6185180;23;20385;-88
2022/05/29 10:22:15;;;;;;;2.55;0.70;;;;;;;;;;6185975;23;20012;-86
2022/05/29 10:24:48;;;;;;;2.30;0.63;;;;;;;;;;6185549;23;20052;-90
2022/05/29 10:27:23;;;;;;;3.95;0.70;;;;;;;;;;6185692;23;20016;-85
2022/05/29 10:30:00;;;;;;;2.13;0.60;;;;;;;;;;6185538;23;20019;-82
2022/05/29 10:32:28;;;;;;;3.38;0.63;;;;;;;;;;6185960;23;20001;-89
2022/05/29 10:35:09;;;;;;;2.75;0.60;;;;;;;;;;6185775;23;20381;-88
2022/05/29 10:37:37;;;;;;;2.67;0.90;;;;;;;;;;6185410;23;20433;-85
2022/05/29 10:40:24;;;;;;;2.25;0.60;;;;;;;;;;6185571;23;20346;-86
2022/05/29 10:42:52;;;;;;;2.95;0.73;;;;;;;;;;6185125;23;20008;-88
2022/05/29 10:45:26;;;;;;;2.40;0.57;;;;;;;;;;6185372;23;20426;-85
2022/05/29 10:48:09;;;;;;;2.10;0.60;;;;;;;;;;6185229;23;20002;-85
2022/05/29 10:50:35;;;;;;;2.63;0.70;;;;;;;;;;6185369;23;20009;-86
2022/05/29 10:53:08;;;;;;;3.58;0.70;;;;;;;;;;6185193;23;20024;-84
2022/05/29 10:55:33;;;;;;;;;;;;;;;;;;6185508;23;20028;-85
2022/05/29 10:58:15;;;;;;;4.75;0.60;;;;;;;;;;6184821;23;19900;-79
2022/05/29 11:00:41;;;;;;;3.67;0.80;;;;;;;;;;6184502;23;20330;-77
2022/05/29 11:03:21;;;;;;;2.20;0.60;;;;;;;;;;6185532;23;20008;-78
2022/05/29 11:05:57;;;;;;;2.70;0.77;;;;;;;;;;6184452;23;20011;-79
2022/05/29 11:08:26;;;;;;;2.72;0.88;;;;;;;;;;6183957;23;20016;-81
2022/05/29 11:10:52;;;;;;;3.58;0.65;;;;;;;;;;6185462;23;20005;-79
2022/05/29 11:13:27;;;;;;;3.17;0.50;;;;;;;;;;6184473;23;20009;-82
2022/05/29 11:16:11;;;;;;;2.45;0.70;;;;;;;;;;6184692;23;20035;-85
2022/05/29 11:18:59;;;;;;;2.20;0.80;;;;;;;;;;6184460;23;20351;-79
2022/05/29 11:21:28;;;;;;;7.75;0.75;;;;;;;;;;6184675;23;20024;-82
2022/05/29 11:24:03;;;;;;;2.33;0.52;;;;;;;;;;6185497;23;20005;-87
2022/05/29 11:26:33;;;;;;;3.65;0.60;;;;;;;;;;6184969;23;20068;-83
2022/05/29 11:29:02;;;;;;;2.08;0.63;;;;;;;;;;6185135;23;20423;-87
2022/05/29 11:31:40;;;;;;;2.78;0.80;;;;;;;;;;6185963;23;20418;-85
2022/05/29 11:34:09;;;;;;;2.58;0.40;;;;;;;;;;6185119;23;20016;-85
2022/05/29 11:36:38;;;;;;;2.78;0.70;;;;;;;;;;6185192;23;20005;-85
2022/05/29 11:39:28;;;;;;;1.63;0.57;;;;;;;;;;6184914;23;20024;-86
2022/05/29 11:41:57;;;;;;;1.73;0.57;;;;;;;;;;6132252;23;20012;-85
2022/05/29 11:44:25;;;;;;;2.90;0.70;;;;;;;;;;6185012;23;20084;-85
2022/05/29 11:52:46;;;;;;;2.83;0.55;;;;;;;;;;6186543;23;20015;-85
2022/05/29 11:55:16;;;;;;;2.88;0.52;;;;;;;;;;6185040;23;20490;-85
2022/05/29 11:58:06;;;;;;;3.25;0.60;;;;;;;;;;6185573;23;20001;-82
2022/05/29 12:00:41;;;;;;;4.30;0.50;;;;;;;;;;6165569;23;20017;-84
2022/05/29 12:03:15;;;;;;;6.53;0.70;;;;;;;;;;6185947;23;20072;-89
2022/05/29 12:05:50;;;;;;;2.20;0.50;;;;;;;;;;6185509;23;20005;-82
2022/05/29 12:08:20;;;;;;;1.80;0.50;;;;;;;;;;6187218;23;20001;-87
2022/05/29 12:11:05;;;;;;;2.88;0.68;;;;;;;;;;6185981;23;20075;-87
2022/05/29 12:13:58;;;;;;;2.38;0.68;;;;;;;;;;6186604;23;20001;-83
2022/05/29 12:16:29;;;;;;;2.83;0.50;;;;;;;;;;6129443;23;20013;-84
2022/05/29 12:18:57;;;;;;;1.73;0.50;;;;;;;;;;6183363;23;20339;-84
2022/05/29 12:21:46;;;;;;;2.28;0.73;;;;;;;;;;6183867;23;20553;-82
2022/05/29 12:24:17;;;;;;;3.08;0.70;;;;;;;;;;6169793;23;20084;-83
2022/05/29 12:27:06;;;;;;;1.80;0.70;;;;;;;;;;6184187;23;20009;-83
2022/05/29 12:29:51;;;;;;;4.75;0.90;;;;;;;;;;6165493;23;20422;-87
2022/05/29 12:32:30;;;;;;;1.90;0.70;;;;;;;;;;6184863;23;20013;-87
2022/05/29 12:35:15;;;;;;;1.95;0.50;;;;;;;;;;6185440;23;20020;-87
2022/05/29 12:38:02;;;;;;;2.65;0.60;;;;;;;;;;6186700;23;20005;-84
2022/05/29 12:40:37;;;;;;;2.40;0.50;;;;;;;;;;6186436;23;20021;-85
2022/05/29 12:43:25;;;;;;;2.45;0.60;;;;;;;;;;6186215;23;20005;-85
2022/05/29 12:45:59;;;;;;;2.22;0.70;;;;;;;;;;6185970;23;20012;-84
2022/05/29 12:48:32;;;;;;;2.15;0.52;;;;;;;;;;6186005;23;20493;-83
2022/05/29 12:51:21;;;;;;;2.78;0.75;;;;;;;;;;6186056;23;20001;-84
2022/05/29 12:54:05;;;;;;;1.88;0.57;;;;;;;;;;6118264;23;20005;-85
2022/05/29 12:56:47;;;;;;;1.70;0.52;;;;;;;;;;6187633;23;20009;-85
2022/05/29 12:59:24;;;;;;;2.30;0.50;;;;;;;;;;6187033;23;20019;-82
2022/05/29 13:01:56;;;;;;;1.73;0.70;;;;;;;;;;6185918;23;20005;-84
2022/05/29 13:04:37;;;;;;;2.40;0.70;;;;;;;;;;6185898;23;20490;-84
2022/05/29 13:07:09;;;;;;;3.08;0.68;;;;;;;;;;6187382;23;20221;-85
2022/05/29 13:09:54;;;;;;;3.05;0.50;;;;;;;;;;6185671;23;20020;-83
2022/05/29 13:12:23;;;;;;;2.92;0.90;;;;;;;;;;6186346;23;20016;-82
2022/05/29 13:14:52;;;;;;;2.33;0.60;;;;;;;;;;6185350;23;20005;-83
2022/05/29 13:17:27;;;;;;;2.72;1.02;;;;;;;;;;6185529;23;20016;-84
2022/05/29 13:20:06;;;;;;;2.50;0.80;;;;;;;;;;6185314;23;20013;-83
2022/05/29 13:22:47;;;;;;;3.80;0.80;;;;;;;;;;6185649;23;20005;-84
2022/05/29 13:25:14;;;;;;;3.92;0.80;;;;;;;;;;6185901;23;20009;-87
2022/05/29 13:27:41;;;;;;;2.90;0.80;;;;;;;;;;6187163;23;20048;-83
2022/05/29 13:30:09;;;;;;;2.72;0.80;;;;;;;;;;6185102;23;20009;-83
2022/05/29 13:32:36;;;;;;;2.33;0.70;;;;;;;;;;6186832;23;20453;-82
2022/05/29 13:35:05;;;;;;;2.22;0.60;;;;;;;;;;6186993;23;20005;-83
2022/05/29 13:37:45;;;;;;;3.47;0.70;;;;;;;;;;6184637;23;20012;-82
2022/05/29 13:40:38;;;;;;;2.33;0.70;;;;;;;;;;6186662;23;20009;-83
2022/05/29 13:43:18;;;;;;;3.30;1.77;;;;;;;;;;6185717;23;20004;-85
2022/05/29 13:45:45;;;;;;;1.92;0.65;;;;;;;;;;6184637;23;20009;-82
2022/05/29 13:48:22;;;;;;;4.90;0.90;;;;;;;;;;6186934;23;20053;-86
2022/05/29 13:50:56;;;;;;;2.67;0.57;;;;;;;;;;6185248;23;20005;-85
2022/05/29 13:53:29;;;;;;;3.75;0.95;;;;;;;;;;6185638;23;20071;-87
2022/05/29 13:56:03;;;;;;;2.83;0.68;;;;;;;;;;6187647;23;20005;-85
2022/05/29 14:04:37;;;;;;;1.88;0.80;;;;;;;;;;6186993;23;20016;-85
2022/05/29 14:07:19;;;;;;;1.50;0.50;;;;;;;;;;6185399;23;20326;-87
2022/05/29 14:10:04;;;;;;;2.28;0.70;;;;;;;;;;6186667;23;20334;-85
2022/05/29 14:12:48;;;;;;;2.15;0.63;;;;;;;;;;6185556;23;20004;-85
2022/05/29 14:15:23;;;;;;;3.05;0.85;;;;;;;;;;6186594;23;20009;-86
2022/05/29 14:17:54;;;;;;;3.03;0.60;;;;;;;;;;6185185;23;20095;-84
2022/05/29 14:20:35;;;;;;;1.45;0.50;;;;;;;;;;6186255;23;20397;-86
2022/05/29 14:23:08;;;;;;;3.85;0.75;;;;;;;;;;6185340;23;20005;-85
2022/05/29 14:26:00;;;;;;;2.83;0.70;;;;;;;;;;6185488;23;20434;-86
2022/05/29 14:28:45;;;;;;;2.67;0.60;;;;;;;;;;6185641;23;20418;-88
2022/05/29 14:31:16;;;;;;;1.80;0.68;;;;;;;;;;6185986;23;20001;-86
2022/05/29 14:34:01;;;;;;;1.90;0.60;;;;;;;;;;6186598;23;20016;-85
2022/05/29 14:36:35;;;;;;;2.25;0.50;;;;;;;;;;6190109;23;20027;-87
2022/05/29 14:39:19;;;;;;;1.77;0.60;;;;;;;;;;6187109;23;20017;-80
2022/05/29 14:41:53;;;;;;;2.78;0.68;;;;;;;;;;6186357;23;20036;-85
2022/05/29 14:44:22;;;;;;;2.20;0.70;;;;;;;;;;6185591;23;20009;-84
2022/05/29 14:47:05;;;;;;;2.53;0.70;;;;;;;;;;6187142;23;20001;-88
2022/05/29 14:49:56;;;;;;;1.52;0.60;;;;;;;;;;6185676;23;20131;-86
2022/05/29 14:52:34;;;;;;;2.95;0.80;;;;;;;;;;6185702;23;20009;-86
2022/05/29 14:55:22;;;;;;;2.38;0.60;;;;;;;;;;6185480;23;20028;-88
2022/05/29 14:57:52;;;;;;;4.57;0.70;;;;;;;;;;6186651;23;20007;-88
2022/05/29 15:00:22;;;;;;;2.13;0.65;;;;;;;;;;6186764;23;20017;-87
2022/05/29 15:02:49;;;;;;;2.20;0.80;;;;;;;;;;6186759;23;20005;-87
2022/05/29 15:05:17;;;;;;;3.47;0.73;;;;;;;;;;6185482;23;20067;-87
2022/05/29 15:10:36;;;;;;;1.60;0.43;;;;;;;;;;6187336;23;20473;-88
2022/05/29 15:13:05;;;;;;;2.55;0.70;;;;;;;;;;6185547;23;20009;-90
2022/05/29 15:15:34;;;;;;;3.60;0.70;;;;;;;;;;6185485;23;20064;-88
2022/05/29 15:18:08;;;;;;;2.35;0.63;;;;;;;;;;6185078;23;20063;-90
2022/05/29 15:26:16;;;;;;;2.17;0.70;;;;;;;;;;6186775;23;20020;-88
2022/05/29 15:28:44;;;;;;;5.18;0.70;;;;;;;;;;6185327;23;20001;-87
2022/05/29 15:31:12;;;;;;;3.05;0.70;;;;;;;;;;6185235;23;20009;-85
2022/05/29 15:33:46;;;;;;;2.63;0.70;;;;;;;;;;6185429;23;20001;-87
2022/05/29 15:36:31;;;;;;;1.73;0.60;;;;;;;;;;6185471;23;20506;-88
2022/05/29 15:39:03;;;;;;;2.15;0.80;;;;;;;;;;6186827;23;20009;-88
2022/05/29 15:41:55;;;;;;;2.67;0.70;;;;;;;;;;6185367;23;20005;-86
2022/05/29 15:44:33;;;;;;;2.53;0.85;;;;;;;;;;6185236;23;20009;-85
2022/05/29 15:47:18;;;;;;;3.42;0.70;;;;;;;;;;6185142;23;20009;-87
2022/05/29 15:50:03;;;;;;;2.30;0.70;;;;;;;;;;6184990;23;20009;-88
2022/05/29 15:52:41;;;;;;;1.75;0.73;;;;;;;;;;6185446;23;20404;-89
2022/05/29 15:55:34;;;;;;;3.08;0.70;;;;;;;;;;6185020;23;20012;-89
2022/05/29 15:58:23;;;;;;;3.30;0.88;;;;;;;;;;6178883;23;20159;-87
2022/05/29 16:01:17;;;;;;;3.08;0.75;;;;;;;;;;6171804;23;20442;-89
2022/05/29 16:03:44;;;;;;;1.93;0.57;;;;;;;;;;6179418;23;20005;-88
2022/05/29 16:06:13;;;;;;;3.40;0.95;;;;;;;;;;6185254;23;20071;-89
2022/05/29 16:08:39;;;;;;;2.78;0.82;;;;;;;;;;6185121;23;20009;-88
2022/05/29 16:11:07;;;;;;;3.67;0.73;;;;;;;;;;6187202;23;20008;-89
2022/05/29 16:13:39;;;;;;;2.38;0.70;;;;;;;;;;6187286;23;20009;-88
2022/05/29 16:16:13;;;;;;;1.80;0.77;;;;;;;;;;6186821;23;20334;-89
2022/05/29 16:18:45;;;;;;;1.88;0.70;;;;;;;;;;6186983;23;20339;-87
2022/05/29 16:21:30;;;;;;;3.92;0.88;;;;;;;;;;6186861;23;20013;-87
2022/05/29 16:24:15;;;;;;;1.90;0.68;;;;;;;;;;6186962;23;20009;-88
2022/05/29 16:26:45;;;;;;;3.05;0.70;;;;;;;;;;6186927;23;20083;-88
2022/05/29 16:29:33;;;;;;;2.03;0.70;;;;;;;;;;6186829;23;20083;-85
2022/05/29 16:32:20;;;;;;;4.63;1.05;;;;;;;;;;6187498;23;20461;-86
2022/05/29 16:34:48;;;;;;;2.17;0.70;;;;;;;;;;6188660;23;20450;-87
2022/05/29 16:48:35;;;;;;;3.10;1.10;;;;;;;;;;6188187;23;20093;-85
2022/05/29 16:51:01;;;;;;;3.90;1.40;;;;;;;;;;6186714;23;20084;-86
2022/05/29 16:53:48;;;;;;;1.88;0.77;;;;;;;;;;6188042;23;20005;-87
2022/05/29 16:56:17;;;;;;;3.72;1.10;;;;;;;;;;6186605;23;20076;-87
2022/05/29 16:58:47;;;;;;;3.42;1.10;;;;;;;;;;6186624;23;20005;-86
2022/05/29 17:01:21;;;;;;;1.98;0.88;;;;;;;;;;6186819;23;20135;-87
2022/05/29 17:03:50;;;;;;;2.88;0.98;;;;;;;;;;6186435;23;20009;-86
2022/05/29 17:06:24;;;;;;;2.03;0.90;;;;;;;;;;6186503;23;20525;-85
2022/05/29 17:08:54;;;;;;;2.35;0.90;;;;;;;;;;6186413;23;20087;-86
2022/05/29 17:11:23;;;;;;;3.97;0.90;;;;;;;;;;6186459;23;20431;-85
2022/05/29 17:13:49;;;;;;;2.13;0.77;;;;;;;;;;6186099;23;20009;-85
2022/05/29 17:16:18;;;;;;;2.38;0.90;;;;;;;;;;6186295;23;20387;-86
2022/05/29 17:18:45;;;;;;;4.70;1.30;;;;;;;;;;6186115;23;20009;-87
2022/05/29 17:21:17;;;;;;;4.45;1.25;;;;;;;;;;6186911;23;20320;-86
2022/05/29 17:23:43;;;;;;;2.17;0.90;;;;;;;;;;6186528;23;20037;-86
2022/05/29 17:26:15;;;;;;;4.82;1.40;;;;;;;;;;6189588;23;20008;-85
2022/05/29 17:28:55;;;;;;;2.17;0.90;;;;;;;;;;6191092;23;20008;-85
2022/05/29 17:31:29;;;;;;;3.50;1.08;;;;;;;;;;6187300;23;20012;-83
2022/05/29 17:34:13;;;;;;;3.50;1.20;;;;;;;;;;6187416;23;20009;-84
2022/05/29 17:36:42;;;;;;;4.68;1.40;;;;;;;;;;6186154;23;20001;-86
2022/05/29 17:39:12;;;;;;;4.70;1.40;;;;;;;;;;6186323;23;20013;-84
2022/05/29 17:41:38;;;;;;;3.60;1.30;;;;;;;;;;6186256;23;20001;-84
2022/05/29 17:44:08;;;;;;;6.65;1.70;;;;;;;;;;6188319;23;20083;-89
2022/05/29 17:46:40;;;;;;;4.03;1.42;;;;;;;;;;6187218;23;20067;-86
2022/05/29 17:49:27;;;;;;;4.20;1.48;;;;;;;;;;6186549;23;20361;-85
2022/05/29 17:51:55;;;;;;;3.15;1.30;;;;;;;;;;6161732;23;20005;-84
2022/05/29 17:54:21;;;;;;;3.08;1.33;;;;;;;;;;6185265;23;20004;-85
2022/05/29 17:56:49;;;;;;;3.70;1.75;;;;;;;;;;6185328;23;20042;-86
2022/05/29 17:59:15;;;;;;;5.80;1.95;;;;;;;;;;6184026;23;20021;-81
2022/05/29 18:01:42;;;;;;;4.38;1.83;;;;;;;;;;6184601;23;20147;-81
2022/05/29 18:04:09;;;;;;;5.72;2.00;;;;;;;;;;6185038;23;20009;-84
2022/05/29 18:06:35;;;;;;;4.43;1.60;;;;;;;;;;6185312;23;20008;-84
2022/05/29 18:09:01;;;;;;;2.55;1.50;;;;;;;;;;6184999;23;20005;-80
2022/05/29 18:11:28;;;;;;;3.95;1.73;;;;;;;;;;6185480;23;20001;-82
2022/05/29 18:13:54;;;;;;;3.00;1.75;;;;;;;;;;6184701;23;20316;-84
2022/05/29 18:16:23;;;;;;;3.75;1.90;;;;;;;;;;6183815;23;20449;-81
2022/05/29 18:18:50;;;;;;;4.55;2.05;;;;;;;;;;6183454;23;20017;-81
2022/05/29 18:21:16;;;;;;;4.32;2.20;;;;;;;;;;6185739;23;20013;-80
2022/05/29 18:23:42;;;;;;;3.42;2.00;;;;;;;;;;6186736;23;20488;-82
2022/05/29 18:26:08;;;;;;;4.95;2.17;;;;;;;;;;6185375;23;20006;-86
2022/05/29 18:28:34;;;;;;;3.92;1.90;;;;;;;;;;6185712;23;20031;-85
2022/05/29 18:31:01;;;;;;;3.80;2.08;;;;;;;;;;6185600;23;20005;-84
2022/05/29 18:33:27;;;;;;;4.30;1.80;;;;;;;;;;6183894;23;20013;-81
2022/05/29 18:35:53;;;;;;;3.97;2.08;;;;;;;;;;6184982;23;20001;-81
2022/05/29 18:38:20;;;;;;;4.53;1.90;;;;;;;;;;6187152;23;20005;-81
2022/05/29 18:40:46;;;;;;;4.70;1.80;;;;;;;;;;6189379;23;20072;-82
2022/05/29 18:43:15;;;;;;;3.55;1.77;;;;;;;;;;6192629;23;20012;-83
2022/05/29 18:45:42;;;;;;;2.95;1.63;;;;;;;;;;6184184;23;20005;-82
2022/05/29 18:48:08;;;;;;;6.28;1.85;;;;;;;;;;6184717;23;20005;-81
2022/05/29 18:50:34;;;;;;;3.15;1.80;;;;;;;;;;6184988;23;20001;-82
2022/05/29 18:53:01;;;;;;;5.25;1.92;;;;;;;;;;6184937;23;20001;-84
2022/05/29 18:55:27;;;;;;;3.88;1.58;;;;;;;;;;6185226;23;20016;-81
2022/05/29 18:57:53;;;;;;;3.72;1.50;;;;;;;;;;6185382;23;20380;-83
2022/05/29 19:00:20;;;;;;;6.20;1.60;;;;;;;;;;6186503;23;20009;-84
2022/05/29 19:02:46;;;;;;;3.17;1.52;;;;;;;;;;6186831;23;20001;-83
2022/05/29 19:05:23;;;;;;;3.03;1.70;;;;;;;;;;6187275;23;20011;-83
2022/05/29 19:07:50;;;;;;;6.10;1.70;;;;;;;;;;6185032;23;20001;-83
2022/05/29 19:10:17;;;;;;;2.72;1.50;;;;;;;;;;6185611;23;20012;-83
2022/05/29 19:12:44;;;;;;;2.83;1.50;;;;;;;;;;6186785;23;20005;-83
2022/05/29 19:15:12;;;;;;;3.92;1.70;;;;;;;;;;6186670;23;20001;-83
2022/05/29 19:20:31;;;;;;;3.65;1.45;;;;;;;;;;6186035;23;20156;-83
2022/05/29 19:22:58;;;;;;;4.05;1.70;;;;;;;;;;6183941;23;20005;-82
2022/05/29 19:25:27;;;;;;;2.67;1.60;;;;;;;;;;6185816;23;20025;-80
2022/05/29 19:27:54;;;;;;;2.75;1.63;;;;;;;;;;6186326;23;20005;-83
2022/05/29 19:30:24;;;;;;;4.35;1.55;;;;;;;;;;6185939;23;20001;-81
2022/05/29 19:32:51;;;;;;;4.43;1.85;;;;;;;;;;6184806;23;20009;-82
2022/05/29 19:35:18;;;;;;;3.22;1.42;;;;;;;;;;6186086;23;20005;-82
2022/05/29 19:37:44;;;;;;;3.03;1.58;;;;;;;;;;6186540;23;20001;-83
2022/05/29 19:40:12;;;;;;;6.03;2.28;;;;;;;;;;6185242;23;20013;-84
2022/05/29 19:42:39;;;;;;;4.53;2.47;;;;;;;;;;6184927;23;20426;-85
2022/05/29 19:45:09;;;;;;;5.03;2.70;;;;;;;;;;6186038;23;20331;-83
2022/05/29 19:47:37;;;;;;;5.15;2.75;;;;;;;;;;6188533;23;20032;-83
2022/05/29 19:50:04;;;;;;;5.72;2.78;;;;;;;;;;6189111;23;20024;-84
2022/05/29 19:52:32;;;;;;;4.50;2.97;;;;;;;;;;6186923;23;20009;-81
2022/05/29 19:55:00;;;;;;;4.68;3.05;;;;;;;;;;6188189;23;20001;-83
2022/05/29 19:57:29;;;;;;;5.80;3.05;;;;;;;;;;6186624;23;20526;-81
2022/05/29 19:59:57;;;;;;;6.05;3.03;;;;;;;;;;6186103;23;20048;-80
2022/05/29 20:02:28;;;;;;;6.88;2.92;;;;;;;;;;6187965;23;20096;-83
2022/05/29 20:04:58;;;;;;;5.78;2.33;;;;;;;;;;6190660;23;20032;-81
2022/05/29 20:07:25;;;;;;;4.45;2.30;;;;;;;;;;6186542;23;20009;-84
2022/05/29 20:09:52;;;;;;;5.25;2.70;;;;;;;;;;6188202;23;20001;-84
2022/05/29 20:12:18;;;;;;;4.85;2.60;;;;;;;;;;6189678;23;20001;-85
2022/05/29 20:14:47;;;;;;;5.05;2.50;;;;;;;;;;6195452;23;20005;-85
2022/05/29 20:17:14;;;;;;;4.40;2.35;;;;;;;;;;6184015;23;20092;-79
2022/05/29 20:19:43;;;;;;;4.60;2.35;;;;;;;;;;6186777;23;20040;-85
2022/05/29 20:22:09;;;;;;;4.25;2.40;;;;;;;;;;6185536;23;20035;-80
2022/05/29 20:24:35;;;;;;;4.82;2.70;;;;;;;;;;6187274;23;20008;-81
2022/05/29 20:27:02;;;;;;;5.75;2.72;;;;;;;;;;6186115;23;20001;-81
2022/05/29 20:29:28;;;;;;;5.22;2.53;;;;;;;;;;6187432;23;20012;-78
2022/05/29 20:31:54;;;;;;;4.72;2.20;;;;;;;;;;6185712;23;20056;-81
2022/05/29 20:34:21;;;;;;;6.32;2.70;;;;;;;;;;6185893;23;20088;-81
2022/05/29 20:36:48;;;;;;;5.68;2.40;;;;;;;;;;6185564;23;20005;-80
2022/05/29 20:39:15;;;;;;;5.03;2.20;;;;;;;;;;6185640;23;20017;-80
2022/05/29 20:41:44;;;;;;;4.38;2.20;;;;;;;;;;6185670;23;20315;-80
2022/05/29 20:44:11;;;;;;;3.80;2.22;;;;;;;;;;6185953;23;20001;-80
2022/05/29 20:49:23;;;;;;;6.80;2.35;;;;;;;;;;6187181;23;20012;-82
2022/05/29 20:51:49;;;;;;;5.28;2.20;;;;;;;;;;6187457;23;20051;-81
2022/05/29 20:54:17;;;;;;;4.75;2.47;;;;;;;;;;6185595;23;20350;-81
2022/05/29 20:56:43;;;;;;;7.95;2.50;;;;;;;;;;6186983;23;20069;-81
2022/05/29 20:59:12;;;;;;;5.07;2.40;;;;;;;;;;6185607;23;20334;-80
2022/05/29 21:01:39;;;;;;;6.68;2.40;;;;;;;;;;6185633;23;20092;-81
2022/05/29 21:04:05;;;;;;;4.85;2.03;;;;;;;;;;6187137;23;20031;-80
2022/05/29 21:06:35;;;;;;;3.85;2.08;;;;;;;;;;6185713;23;20012;-81
2022/05/29 21:09:01;;;;;;;3.85;1.80;;;;;;;;;;6185507;23;20036;-81
2022/05/29 21:11:27;;;;;;;4.68;2.10;;;;;;;;;;6185595;23;20012;-80
2022/05/29 21:13:53;;;;;;;4.18;1.98;;;;;;;;;;6187142;23;20358;-81
2022/05/29 21:16:21;;;;;;;4.40;2.10;;;;;;;;;;6185424;23;20005;-80
2022/05/29 21:18:47;;;;;;;4.90;2.28;;;;;;;;;;6185540;23;20442;-81
2022/05/29 21:21:24;;;;;;;4.28;1.95;;;;;;;;;;6185042;23;20021;-79
2022/05/29 21:23:52;;;;;;;3.42;2.00;;;;;;;;;;6185216;23;20561;-80
2022/05/29 21:26:18;;;;;;;3.53;2.00;;;;;;;;;;6185454;23;20004;-82
2022/05/29 21:28:44;;;;;;;3.20;2.03;;;;;;;;;;6186682;23;20007;-81
2022/05/29 21:31:10;;;;;;;3.15;1.90;;;;;;;;;;6185046;23;20012;-81
2022/05/29 21:33:38;;;;;;;4.60;1.90;;;;;;;;;;6185352;23;20001;-80
2022/05/29 21:36:04;;;;;;;3.75;1.88;;;;;;;;;;6185115;23;20457;-80
2022/05/29 21:38:31;;;;;;;3.78;1.95;;;;;;;;;;6185067;23;20088;-80
2022/05/29 21:40:58;;;;;;;4.28;1.90;;;;;;;;;;6185306;23;20159;-79
2022/05/29 21:43:24;;;;;;;3.25;1.58;;;;;;;;;;6185100;23;20009;-80
2022/05/29 21:46:17;;;;;;;5.38;2.20;;;;;;;;;;6185070;23;20095;-82
2022/05/29 21:48:43;;;;;;;3.90;1.90;;;;;;;;;;6181581;23;20012;-80
2022/05/29 21:51:11;;;;;;;3.85;1.85;;;;;;;;;;6186344;23;20024;-78
2022/05/29 21:53:37;;;;;;;3.90;1.80;;;;;;;;;;6184725;23;20054;-78
2022/05/29 21:56:05;;;;;;;4.45;1.80;;;;;;;;;;6184783;23;20083;-80
2022/05/29 21:58:31;;;;;;;4.25;1.80;;;;;;;;;;6184834;23;20016;-80
2022/05/29 22:00:58;;;;;;;4.07;1.80;;;;;;;;;;6186388;23;20028;-78
2022/05/29 22:03:25;;;;;;;5.10;2.03;;;;;;;;;;6184649;23;20040;-81
2022/05/29 22:05:52;;;;;;;3.03;1.70;;;;;;;;;;6185042;23;20389;-82
2022/05/29 22:08:18;;;;;;;5.15;2.10;;;;;;;;;;6184284;23;20005;-81
2022/05/29 22:10:45;;;;;;;6.88;2.20;;;;;;;;;;6186397;23;20417;-81
2022/05/29 22:13:12;;;;;;;3.67;1.90;;;;;;;;;;6184695;23;20005;-81
2022/05/29 22:15:38;;;;;;;3.28;1.90;;;;;;;;;;6184516;23;20001;-80
2022/05/29 22:18:04;;;;;;;4.82;1.92;;;;;;;;;;6186866;23;20081;-81